createdAt,value
2018-09-08T00:02:15.621Z,15.50
2018-09-08T00:05:20.478Z,15.56
2018-09-08T00:08:25.371Z,15.52
2018-09-08T00:11:30.454Z,15.53
2018-09-08T00:14:34.253Z,15.57
2018-09-08T00:17:44.528Z,15.47
2018-09-08T00:20:54.691Z,15.40
2018-09-08T00:24:04.862Z,15.30
2018-09-08T00:27:08.815Z,15.16
2018-09-08T00:30:15.334Z,15.01
2018-09-08T00:33:20.336Z,14.94
2018-09-08T00:36:25.176Z,14.87
2018-09-08T00:39:31.339Z,14.90
2018-09-08T00:42:36.292Z,14.81
2018-09-08T00:45:41.200Z,14.69
2018-09-08T00:48:46.109Z,14.62
2018-09-08T00:51:51.055Z,14.60
2018-09-08T00:54:57.009Z,14.66
2018-09-08T00:58:01.877Z,14.76
2018-09-08T01:01:06.873Z,14.70
2018-09-08T01:04:11.782Z,14.79
2018-09-08T01:07:21.776Z,14.84
2018-09-08T01:10:26.642Z,14.89
2018-09-08T01:13:31.530Z,14.92
2018-09-08T01:16:36.469Z,14.91
2018-09-08T01:19:41.353Z,14.97
2018-09-08T01:22:46.205Z,14.77
2018-09-08T01:25:51.045Z,14.71
2018-09-08T01:28:55.857Z,14.65
2018-09-08T01:32:00.665Z,14.50
2018-09-08T01:35:05.671Z,14.61
2018-09-08T01:38:10.739Z,14.48
2018-09-08T01:41:15.548Z,14.30
2018-09-08T01:44:20.365Z,14.26
2018-09-08T01:47:25.278Z,14.23
2018-09-08T01:50:30.234Z,14.25
2018-09-08T01:53:35.058Z,14.36
2018-09-08T01:56:39.890Z,14.27
2018-09-08T01:59:44.871Z,14.30
2018-09-08T02:02:49.769Z,14.36
2018-09-08T02:05:54.601Z,14.30
2018-09-08T02:08:59.619Z,14.29
2018-09-08T02:12:04.625Z,14.30
2018-09-08T02:15:09.876Z,14.31
2018-09-08T02:18:14.925Z,14.19
2018-09-08T02:21:19.855Z,14.17
2018-09-08T02:24:24.761Z,14.08
2018-09-08T02:27:29.692Z,14.07
2018-09-08T02:30:34.701Z,13.99
2018-09-08T02:33:39.557Z,14.07
2018-09-08T02:36:44.425Z,13.90
2018-09-08T02:39:49.201Z,13.91
2018-09-08T02:42:54.034Z,13.94
2018-09-08T02:45:58.870Z,13.68
2018-09-08T02:49:03.769Z,13.61
2018-09-08T02:52:06.742Z,13.51
2018-09-08T02:55:09.649Z,13.31
2018-09-08T02:58:12.550Z,13.20
2018-09-08T03:01:15.521Z,13.02
2018-09-08T03:04:18.455Z,12.87
2018-09-08T03:07:21.489Z,12.74
2018-09-08T03:10:24.417Z,12.60
2018-09-08T03:13:27.340Z,12.50
2018-09-08T03:16:30.330Z,12.42
2018-09-08T03:19:33.239Z,12.27
2018-09-08T03:22:36.158Z,12.02
2018-09-08T03:25:39.112Z,12.03
2018-09-08T03:28:42.054Z,11.87
2018-09-08T03:31:44.960Z,11.74
2018-09-08T03:34:47.906Z,11.56
2018-09-08T03:37:50.835Z,11.63
2018-09-08T03:40:53.865Z,11.63
2018-09-08T03:43:56.796Z,11.54
2018-09-08T03:46:59.925Z,11.52
2018-09-08T03:50:02.849Z,11.45
2018-09-08T03:53:05.805Z,11.38
2018-09-08T03:56:08.843Z,11.22
2018-09-08T03:59:11.831Z,11.03
2018-09-08T04:02:14.755Z,10.87
2018-09-08T04:05:19.597Z,10.80
2018-09-08T04:08:24.448Z,10.74
2018-09-08T04:11:29.340Z,10.79
2018-09-08T04:14:34.295Z,10.69
2018-09-08T04:17:39.147Z,10.58
2018-09-08T04:20:44.181Z,10.61
2018-09-08T04:23:49.043Z,10.58
2018-09-08T04:26:53.809Z,10.63
2018-09-08T04:29:58.682Z,10.53
2018-09-08T04:33:03.864Z,10.40
2018-09-08T04:36:08.667Z,10.43
2018-09-08T04:39:13.698Z,10.31
2018-09-08T04:42:18.534Z,10.26
2018-09-08T04:45:23.417Z,10.26
2018-09-08T04:48:28.224Z,10.29
2018-09-08T04:51:33.085Z,10.15
2018-09-08T04:54:37.962Z,10.05
2018-09-08T04:57:42.970Z,10.04
2018-09-08T05:00:47.865Z,10.00
2018-09-08T05:03:52.767Z,10.00
2018-09-08T05:06:57.597Z,9.95
2018-09-08T05:10:02.496Z,10.03
2018-09-08T05:13:07.899Z,10.16
2018-09-08T05:16:12.688Z,10.18
2018-09-08T05:19:17.554Z,10.16
2018-09-08T05:22:22.361Z,10.27
2018-09-08T05:25:27.325Z,10.34
2018-09-08T05:28:32.259Z,10.69
2018-09-08T05:31:37.032Z,11.06
2018-09-08T05:34:41.942Z,11.31
2018-09-08T05:37:46.791Z,11.04
2018-09-08T05:40:51.548Z,10.88
2018-09-08T05:43:56.435Z,10.87
2018-09-08T05:47:01.247Z,10.94
2018-09-08T05:50:06.226Z,11.35
2018-09-08T05:53:11.088Z,11.78
2018-09-08T05:56:16.008Z,12.10
2018-09-08T05:59:20.890Z,11.69
2018-09-08T06:02:25.817Z,11.65
2018-09-08T06:05:30.646Z,11.77
2018-09-08T06:08:35.587Z,11.94
2018-09-08T06:11:40.722Z,12.18
2018-09-08T06:14:45.608Z,12.26
2018-09-08T06:17:50.391Z,12.53
2018-09-08T06:20:55.311Z,12.70
2018-09-08T06:24:00.164Z,12.99
2018-09-08T06:27:04.984Z,13.20
2018-09-08T06:30:09.893Z,13.30
2018-09-08T06:33:14.735Z,13.74
2018-09-08T06:36:19.495Z,13.83
2018-09-08T06:39:24.406Z,14.05
2018-09-08T06:42:29.240Z,14.01
2018-09-08T06:45:34.138Z,14.18
2018-09-08T06:48:38.940Z,14.12
2018-09-08T06:51:43.769Z,14.20
2018-09-08T06:54:48.609Z,14.50
2018-09-08T06:57:53.634Z,14.45
2018-09-08T07:00:58.463Z,14.38
2018-09-08T07:04:03.262Z,14.40
2018-09-08T07:07:11.927Z,14.58
2018-09-08T07:10:16.899Z,14.63
2018-09-08T07:13:21.710Z,15.12
2018-09-08T07:16:26.559Z,15.39
2018-09-08T07:19:31.382Z,15.24
2018-09-08T07:22:36.352Z,15.41
2018-09-08T07:25:41.231Z,15.60
2018-09-08T07:28:46.135Z,15.43
2018-09-08T07:31:51.003Z,15.40
2018-09-08T07:34:55.810Z,15.68
2018-09-08T07:38:00.700Z,16.18
2018-09-08T07:41:05.679Z,16.39
2018-09-08T07:44:10.570Z,16.68
2018-09-08T07:47:15.488Z,16.61
2018-09-08T07:50:20.367Z,16.39
2018-09-08T07:53:25.242Z,16.67
2018-09-08T07:56:30.142Z,16.83
2018-09-08T07:59:35.177Z,16.71
2018-09-08T08:02:40.091Z,16.97
2018-09-08T08:05:44.948Z,17.07
2018-09-08T08:08:49.907Z,17.20
2018-09-08T08:11:54.782Z,17.39
2018-09-08T08:14:59.717Z,17.84
2018-09-08T08:18:04.632Z,17.78
2018-09-08T08:21:09.669Z,18.19
2018-09-08T08:24:14.563Z,18.11
2018-09-08T08:27:19.452Z,18.36
2018-09-08T08:30:24.344Z,18.70
2018-09-08T08:33:29.215Z,18.22
2018-09-08T08:36:34.215Z,18.41
2018-09-08T08:39:39.067Z,18.39
2018-09-08T08:42:44.120Z,18.76
2018-09-08T08:45:48.985Z,19.41
2018-09-08T08:48:53.959Z,19.08
2018-09-08T08:52:15.703Z,19.10
2018-09-08T08:55:20.507Z,18.62
2018-09-08T08:58:25.390Z,19.31
2018-09-08T09:01:30.245Z,19.57
2018-09-08T09:04:35.140Z,19.49
2018-09-08T09:07:40.088Z,19.15
2018-09-08T09:10:44.947Z,19.38
2018-09-08T09:13:49.905Z,19.55
2018-09-08T09:16:54.870Z,19.67
2018-09-08T09:20:16.531Z,19.33
2018-09-08T09:24:58.690Z,19.77
2018-09-08T09:28:03.466Z,19.81
2018-09-08T09:31:08.397Z,20.29
2018-09-08T09:34:13.244Z,20.43
2018-09-08T09:37:18.193Z,20.25
2018-09-08T09:40:23.495Z,20.37
2018-09-08T09:43:28.322Z,20.61
2018-09-08T09:46:33.430Z,20.30
2018-09-08T09:49:38.191Z,20.80
2018-09-08T09:52:43.226Z,21.09
2018-09-08T09:55:48.107Z,20.76
2018-09-08T09:58:53.045Z,20.54
2018-09-08T10:02:03.267Z,20.46
2018-09-08T10:05:13.093Z,20.98
2018-09-08T10:08:18.092Z,20.68
2018-09-08T10:11:22.963Z,20.95
2018-09-08T10:14:27.846Z,21.12
2018-09-08T10:17:32.855Z,21.58
2018-09-08T10:20:37.779Z,21.42
2018-09-08T10:24:04.339Z,21.34
2018-09-08T10:26:47.694Z,21.72
2018-09-08T10:29:53.724Z,21.50
2018-09-08T10:33:07.666Z,21.28
2018-09-08T10:36:12.729Z,21.10
2018-09-08T10:39:17.594Z,21.27
2018-09-08T10:42:22.525Z,21.58
2018-09-08T10:45:27.435Z,21.14
2018-09-08T10:48:33.238Z,21.85
2018-09-08T10:53:00.164Z,22.09
2018-09-08T10:56:05.181Z,22.27
2018-09-08T10:59:10.211Z,21.91
2018-09-08T11:02:15.596Z,21.91
2018-09-08T11:05:20.103Z,22.13
2018-09-08T11:08:24.971Z,22.04
2018-09-08T11:11:29.982Z,21.72
2018-09-08T11:14:34.985Z,21.47
2018-09-08T11:17:39.875Z,21.88
2018-09-08T11:20:45.179Z,21.93
2018-09-08T11:23:50.144Z,22.37
2018-09-08T11:26:55.269Z,22.16
2018-09-08T11:30:00.088Z,22.31
2018-09-08T11:33:05.024Z,22.08
2018-09-08T11:36:09.888Z,22.03
2018-09-08T11:39:15.699Z,22.46
2018-09-08T11:42:20.542Z,22.65
2018-09-08T11:45:25.543Z,22.42
2018-09-08T11:48:30.492Z,22.67
2018-09-08T11:51:35.347Z,22.48
2018-09-08T11:54:40.565Z,22.16
2018-09-08T11:57:45.527Z,22.10
2018-09-08T12:00:50.617Z,22.17
2018-09-08T12:03:55.579Z,21.77
2018-09-08T12:07:00.470Z,22.32
2018-09-08T12:10:05.711Z,22.24
2018-09-08T12:13:10.794Z,22.22
2018-09-08T12:16:15.757Z,22.64
2018-09-08T12:19:20.686Z,22.63
2018-09-08T12:22:25.805Z,22.44
2018-09-08T12:25:30.851Z,22.70
2018-09-08T12:28:35.810Z,22.95
2018-09-08T12:31:40.718Z,23.01
2018-09-08T12:34:50.838Z,22.98
2018-09-08T12:37:55.845Z,22.71
2018-09-08T12:41:00.767Z,22.78
2018-09-08T12:44:05.785Z,22.19
2018-09-08T12:47:10.654Z,22.42
2018-09-08T12:50:15.719Z,22.51
2018-09-08T12:53:20.695Z,22.77
2018-09-08T12:56:25.684Z,22.69
2018-09-08T12:59:35.069Z,22.54
2018-09-08T13:02:39.951Z,22.71
2018-09-08T13:05:46.170Z,23.03
2018-09-08T13:08:52.440Z,23.33
2018-09-08T13:11:57.402Z,23.40
2018-09-08T13:15:02.311Z,23.45
2018-09-08T13:18:07.291Z,23.36
2018-09-08T13:21:12.236Z,23.37
2018-09-08T13:24:17.207Z,23.35
2018-09-08T13:27:22.142Z,23.13
2018-09-08T13:30:26.978Z,23.27
2018-09-08T13:33:31.912Z,23.58
2018-09-08T13:36:36.766Z,23.08
2018-09-08T13:39:41.690Z,22.96
2018-09-08T13:42:46.545Z,23.03
2018-09-08T13:45:51.810Z,22.94
2018-09-08T13:48:56.832Z,23.04
2018-09-08T13:52:01.823Z,23.23
2018-09-08T13:55:06.786Z,23.00
2018-09-08T13:58:11.667Z,22.83
2018-09-08T14:01:16.529Z,22.91
2018-09-08T14:04:21.387Z,22.93
2018-09-08T14:07:26.414Z,22.76
2018-09-08T14:10:31.361Z,22.87
2018-09-08T14:13:36.247Z,23.08
2018-09-08T14:16:41.093Z,23.19
2018-09-08T14:19:46.049Z,22.89
2018-09-08T14:22:50.940Z,22.94
2018-09-08T14:25:55.827Z,22.96
2018-09-08T14:29:09.087Z,23.25
2018-09-08T14:32:13.969Z,23.01
2018-09-08T14:35:18.812Z,22.89
2018-09-08T14:38:23.787Z,22.88
2018-09-08T14:41:28.778Z,23.09
2018-09-08T14:44:33.845Z,23.12
2018-09-08T14:47:39.339Z,23.09
2018-09-08T14:50:44.297Z,23.08
2018-09-08T14:53:49.581Z,22.63
2018-09-08T14:56:54.453Z,22.80
2018-09-08T15:00:00.286Z,22.73
2018-09-08T15:03:05.362Z,22.89
2018-09-08T15:06:10.345Z,22.59
2018-09-08T15:09:15.388Z,22.61
2018-09-08T15:12:20.336Z,22.65
2018-09-08T15:15:25.201Z,22.70
2018-09-08T15:18:30.277Z,22.47
2018-09-08T15:21:35.198Z,22.55
2018-09-08T15:24:40.175Z,22.37
2018-09-08T15:27:45.181Z,22.39
2018-09-08T15:30:50.135Z,22.46
2018-09-08T15:33:55.197Z,22.56
2018-09-08T15:37:00.491Z,22.67
2018-09-08T15:40:05.762Z,22.55
2018-09-08T15:43:10.709Z,22.58
2018-09-08T15:46:15.753Z,22.58
2018-09-08T15:49:20.900Z,22.50
2018-09-08T15:52:25.856Z,22.14
2018-09-08T15:55:30.863Z,22.09
2018-09-08T15:58:36.035Z,22.34
2018-09-08T16:01:40.801Z,22.30
2018-09-08T16:04:45.785Z,22.33
2018-09-08T16:07:50.851Z,22.25
2018-09-08T16:10:55.739Z,22.02
2018-09-08T16:14:00.683Z,21.97
2018-09-08T16:17:05.606Z,21.77
2018-09-08T16:20:10.763Z,21.65
2018-09-08T16:23:15.834Z,21.75
2018-09-08T16:26:22.965Z,21.40
2018-09-08T16:29:27.885Z,21.47
2018-09-08T16:32:32.870Z,21.35
2018-09-08T16:35:37.749Z,21.29
2018-09-08T16:38:42.700Z,21.29
2018-09-08T16:41:47.562Z,21.09
2018-09-08T16:44:52.415Z,21.06
2018-09-08T16:47:57.307Z,21.17
2018-09-08T16:51:02.231Z,21.08
2018-09-08T16:54:07.604Z,20.94
2018-09-08T16:57:12.490Z,20.75
2018-09-08T17:00:17.390Z,20.55
2018-09-08T17:03:22.250Z,20.17
2018-09-08T17:06:27.257Z,20.20
2018-09-08T17:09:32.356Z,20.28
2018-09-08T17:12:37.418Z,20.01
2018-09-08T17:15:42.379Z,19.94
2018-09-08T17:18:47.300Z,19.83
2018-09-08T17:21:52.580Z,19.65
2018-09-08T17:24:57.624Z,19.38
2018-09-08T17:28:02.674Z,19.13
2018-09-08T17:31:07.664Z,18.97
2018-09-08T17:34:12.973Z,18.68
2018-09-08T17:37:18.112Z,18.58
2018-09-08T17:40:23.090Z,18.50
2018-09-08T17:43:28.143Z,18.47
2018-09-08T17:46:33.069Z,18.36
2018-09-08T17:49:38.033Z,18.22
2018-09-08T17:52:42.994Z,18.15
2018-09-08T17:55:47.907Z,18.01
2018-09-08T17:58:53.158Z,17.91
2018-09-08T18:01:58.802Z,17.81
2018-09-08T18:05:03.919Z,17.62
2018-09-08T18:08:08.863Z,17.49
2018-09-08T18:11:13.728Z,17.45
2018-09-08T18:14:18.662Z,17.30
2018-09-08T18:17:23.656Z,17.33
2018-09-08T18:20:28.594Z,17.18
2018-09-08T18:23:33.442Z,17.12
2018-09-08T18:26:38.342Z,16.98
2018-09-08T18:29:43.680Z,16.79
2018-09-08T18:32:48.769Z,16.69
2018-09-08T18:35:55.763Z,16.68
2018-09-08T18:39:00.742Z,16.69
2018-09-08T18:42:05.757Z,16.57
2018-09-08T18:45:10.794Z,16.36
2018-09-08T18:48:15.862Z,16.18
2018-09-08T18:51:20.841Z,16.09
2018-09-08T18:54:26.980Z,16.02
2018-09-08T18:57:32.031Z,15.94
2018-09-08T19:00:37.198Z,15.97
2018-09-08T19:03:42.201Z,16.17
2018-09-08T19:06:47.236Z,16.10
2018-09-08T19:09:57.400Z,16.05
2018-09-08T19:13:03.623Z,16.06
2018-09-08T19:16:09.295Z,15.98
2018-09-08T19:19:14.250Z,15.87
2018-09-08T19:22:19.651Z,15.82
2018-09-08T19:25:24.646Z,15.74
2018-09-08T19:28:29.671Z,15.77
2018-09-08T19:31:34.793Z,15.68
2018-09-08T19:34:39.763Z,15.61
2018-09-08T19:37:44.953Z,15.51
2018-09-08T19:40:49.961Z,15.35
2018-09-08T19:43:55.016Z,15.26
2018-09-08T19:48:08.687Z,15.32
2018-09-08T19:51:13.769Z,15.21
2018-09-08T19:54:18.907Z,14.99
2018-09-08T19:57:28.913Z,14.90
2018-09-08T20:00:34.003Z,14.77
2018-09-08T20:03:39.000Z,14.71
2018-09-08T20:06:43.869Z,14.70
2018-09-08T20:09:49.575Z,14.65
2018-09-08T20:12:54.603Z,14.65
2018-09-08T20:15:59.761Z,14.65
2018-09-08T20:19:05.892Z,14.57
2018-09-08T20:22:11.800Z,14.48
2018-09-08T20:25:16.730Z,14.41
2018-09-08T20:28:21.754Z,14.40
2018-09-08T20:31:26.973Z,14.44
2018-09-08T20:34:32.117Z,14.39
2018-09-08T20:37:37.266Z,14.40
2018-09-08T20:40:42.799Z,14.52
2018-09-08T20:43:47.763Z,14.46
2018-09-08T20:46:52.739Z,14.25
2018-09-08T20:49:57.660Z,14.07
2018-09-08T20:53:02.945Z,13.96
2018-09-08T20:56:08.019Z,13.83
2018-09-08T20:59:13.044Z,13.73
2018-09-08T21:02:17.894Z,13.64
2018-09-08T21:05:22.827Z,13.59
2018-09-08T21:08:27.850Z,13.47
2018-09-08T21:11:32.867Z,13.33
2018-09-08T21:14:38.671Z,13.25
2018-09-08T21:17:43.614Z,13.30
2018-09-08T21:20:48.499Z,13.21
2018-09-08T21:23:53.470Z,13.14
2018-09-08T21:26:58.423Z,13.25
2018-09-08T21:30:03.427Z,13.14
2018-09-08T21:33:08.393Z,13.07
2018-09-08T21:36:13.629Z,12.98
2018-09-08T21:39:18.703Z,12.81
2018-09-08T21:42:23.906Z,12.90
2018-09-08T21:45:28.878Z,12.82
2018-09-08T21:48:33.731Z,12.79
2018-09-08T21:51:38.866Z,12.79
2018-09-08T21:54:43.874Z,12.88
2018-09-08T21:57:48.954Z,12.84
2018-09-08T22:00:56.100Z,12.78
2018-09-08T22:04:01.163Z,12.72
2018-09-08T22:07:06.024Z,12.67
2018-09-08T22:10:10.963Z,12.54
2018-09-08T22:13:16.104Z,12.52
2018-09-08T22:16:21.036Z,12.40
2018-09-08T22:19:25.987Z,12.39
2018-09-08T22:22:31.066Z,12.55
2018-09-08T22:25:35.902Z,12.48
2018-09-08T22:28:40.855Z,12.47
2018-09-08T22:31:45.954Z,12.32
2018-09-08T22:34:51.246Z,12.28
2018-09-08T22:37:56.236Z,12.19
2018-09-08T22:41:01.151Z,12.06
2018-09-08T22:44:06.803Z,12.13
2018-09-08T22:47:11.720Z,12.10
2018-09-08T22:50:16.900Z,12.18
2018-09-08T22:53:21.772Z,12.10
2018-09-08T22:56:26.658Z,12.25
2018-09-08T22:59:31.589Z,12.28
2018-09-08T23:02:36.521Z,12.23
2018-09-08T23:05:41.764Z,12.19
2018-09-08T23:08:46.744Z,12.25
2018-09-08T23:11:51.639Z,12.25
2018-09-08T23:14:56.588Z,12.26
2018-09-08T23:18:02.283Z,12.25
2018-09-08T23:21:07.501Z,12.25
2018-09-08T23:24:12.754Z,12.33
2018-09-08T23:27:17.640Z,12.44
2018-09-08T23:30:22.507Z,12.26
2018-09-08T23:33:27.435Z,12.18
2018-09-08T23:36:32.388Z,12.10
2018-09-08T23:39:37.241Z,12.02
2018-09-08T23:42:42.072Z,11.99
2018-09-08T23:45:47.246Z,11.93
2018-09-08T23:48:52.133Z,11.88
2018-09-08T23:51:57.039Z,11.93
2018-09-08T23:55:02.041Z,11.86
2018-09-08T23:58:07.037Z,11.84
